Time;durP1;ratioP1;P1;durP2;ratioP2;P2;SDS_P1;SDS_P2;PMS_P1;PMS_P2;Temp;Humidity;BMP_temperature;BMP_pressure;BME280_temperature;BME280_humidity;BME280_pressure;Samples;Min_cycle;Max_cycle;Signal;HPM_P1;HPM_P2
2023/05/15 00:01:34;;;;;;;;;;;13.30;99.90;;;;;;5082691;28;20390;-73
2023/05/15 00:03:59;;;;;;;;;;;13.30;99.90;;;;;;5091379;28;19931;-73
2023/05/15 00:06:26;;;;;;;;;;;13.20;99.90;;;;;;5074267;28;20386;-73
2023/05/15 00:08:52;;;;;;;;;;;13.10;99.90;;;;;;5092072;28;19928;-73
2023/05/15 00:11:18;;;;;;;;;;;13.10;99.90;;;;;;5090230;28;19935;-75
2023/05/15 00:13:43;;;;;;;;;;;13.10;99.90;;;;;;5082983;28;19930;-75
2023/05/15 00:16:09;;;;;;;;;;;13.00;99.90;;;;;;5073992;28;19924;-75
2023/05/15 00:18:34;;;;;;;;;;;12.90;99.90;;;;;;5091836;28;19932;-74
2023/05/15 00:21:00;;;;;;;;;;;12.90;99.90;;;;;;5073513;28;19924;-75
2023/05/15 00:23:25;;;;;;;;;;;12.90;99.90;;;;;;5089235;28;19932;-75
2023/05/15 00:25:51;;;;;;;;;;;12.90;99.90;;;;;;5090232;28;19924;-75
2023/05/15 00:28:16;;;;;;;;;;;12.90;99.90;;;;;;5091705;28;19950;-73
2023/05/15 00:30:42;;;;;;;;;;;12.90;99.90;;;;;;5090297;28;19931;-73
2023/05/15 00:33:08;;;;;;;;;;;12.90;99.90;;;;;;5090554;28;20441;-73
2023/05/15 00:35:33;;;;;;;;;;;12.80;99.90;;;;;;5090650;28;19930;-73
2023/05/15 00:37:59;;;;;;;;;;;12.70;99.90;;;;;;5090285;28;20421;-73
2023/05/15 00:40:24;;;;;;;;;;;12.70;99.90;;;;;;5090330;28;19931;-73
2023/05/15 00:42:51;;;;;;;;;;;12.80;99.90;;;;;;5073281;28;19924;-73
2023/05/15 00:45:16;;;;;;;;;;;12.80;99.90;;;;;;5089494;28;19928;-72
2023/05/15 00:47:42;;;;;;;;;;;12.80;99.90;;;;;;5089575;28;20318;-72
2023/05/15 00:50:08;;;;;;;;;;;12.80;99.90;;;;;;5089739;28;19939;-73
2023/05/15 00:52:34;;;;;;;;;;;12.80;99.90;;;;;;5091043;28;20290;-73
2023/05/15 00:55:00;;;;;;;;;;;12.80;99.90;;;;;;5080797;28;20369;-73
2023/05/15 00:57:26;;;;;;;;;;;12.70;99.90;;;;;;5082128;28;19955;-73
2023/05/15 00:59:52;;;;;;;;;;;12.70;99.90;;;;;;5089642;28;19959;-73
2023/05/15 01:02:18;;;;;;;;;;;12.60;99.90;;;;;;5090994;28;19925;-73
2023/05/15 01:04:44;;;;;;;;;;;12.60;99.90;;;;;;5088779;28;19932;-73
2023/05/15 01:07:10;;;;;;;;;;;12.50;99.90;;;;;;5089298;28;19928;-73
2023/05/15 01:09:35;;;;;;;;;;;12.50;99.90;;;;;;5090871;28;20271;-74
2023/05/15 01:12:03;;;;;;;;;;;12.40;99.90;;;;;;5089465;28;20009;-73
2023/05/15 01:14:28;;;;;;;;;;;12.40;99.90;;;;;;5089823;28;19928;-73
2023/05/15 01:16:54;;;;;;;;;;;12.40;99.90;;;;;;5090344;28;19970;-73
2023/05/15 01:19:20;;;;;;;;;;;12.40;99.90;;;;;;5090293;28;19924;-73
2023/05/15 01:21:51;;;;;;;;;;;12.40;99.90;;;;;;5089115;28;20457;-73
2023/05/15 01:24:37;;;;;;;;;;;12.40;99.90;;;;;;5089573;28;20007;-73
2023/05/15 01:27:18;;;;;;;;;;;12.40;99.90;;;;;;5090641;28;20015;-73
2023/05/15 01:29:43;;;;;;;;;;;12.40;99.90;;;;;;5088580;28;20011;-73
2023/05/15 01:32:11;;;;;;;;;;;12.40;99.90;;;;;;5090644;28;20406;-73
2023/05/15 01:34:47;;;;;;;;;;;12.40;99.90;;;;;;5088099;28;19924;-73
2023/05/15 01:37:14;;;;;;;;;;;12.40;99.90;;;;;;5089106;28;20278;-73
2023/05/15 01:39:41;;;;;;;;;;;12.40;99.90;;;;;;5071699;28;20099;-73
2023/05/15 01:42:07;;;;;;;;;;;12.30;99.90;;;;;;5089001;28;19939;-73
2023/05/15 01:44:35;;;;;;;;;;;12.30;99.90;;;;;;5088891;28;19951;-73
2023/05/15 01:47:05;;;;;;;;;;;12.20;99.90;;;;;;5088199;28;20459;-73
2023/05/15 01:49:32;;;;;;;;;;;12.20;99.90;;;;;;5088961;28;19960;-73
2023/05/15 01:52:04;;;;;;;;;;;12.20;99.90;;;;;;5089299;28;19931;-73
2023/05/15 01:54:30;;;;;;;;;;;12.20;99.90;;;;;;5089621;28;19970;-73
2023/05/15 01:56:56;;;;;;;;;;;12.20;99.90;;;;;;5088121;28;19928;-73
2023/05/15 01:59:22;;;;;;;;;;;12.20;99.90;;;;;;5088609;28;19942;-73
2023/05/15 02:01:49;;;;;;;;;;;12.20;99.90;;;;;;5087927;28;19931;-73
2023/05/15 02:04:15;;;;;;;;;;;12.10;99.90;;;;;;5089766;28;19924;-73
2023/05/15 02:06:41;;;;;;;;;;;12.10;99.90;;;;;;5089383;28;19970;-73
2023/05/15 02:09:08;;;;;;;;;;;12.10;99.90;;;;;;5088712;28;19975;-73
2023/05/15 02:11:33;;;;;;;;;;;12.10;99.90;;;;;;5087920;28;19931;-73
2023/05/15 02:14:00;;;;;;;;;;;12.10;99.90;;;;;;5089647;28;19924;-74
2023/05/15 02:16:25;;;;;;;;;;;12.10;99.90;;;;;;5070885;28;19928;-73
2023/05/15 02:18:51;;;;;;;;;;;12.00;99.90;;;;;;5089458;28;19924;-73
2023/05/15 02:21:16;;;;;;;;;;;12.00;99.90;;;;;;5088244;28;19950;-73
2023/05/15 02:23:42;;;;;;;;;;;11.90;99.90;;;;;;5088092;28;20014;-73
2023/05/15 02:26:25;;;;;;;;;;;11.90;99.90;;;;;;5075658;28;20309;-73
2023/05/15 02:29:09;;;;;;;;;;;11.90;99.90;;;;;;5071814;28;19928;-73
2023/05/15 02:31:43;;;;;;;;;;;11.90;99.90;;;;;;5089359;28;20313;-73
2023/05/15 02:34:17;;;;;;;;;;;11.90;99.90;;;;;;5089167;28;19946;-73
2023/05/15 02:36:44;;;;;;;;;;;11.90;99.90;;;;;;5089809;28;20003;-73
2023/05/15 02:39:12;;;;;;;;;;;12.00;99.90;;;;;;5089837;28;19924;-73
2023/05/15 02:41:37;;;;;;;;;;;12.00;99.90;;;;;;5088428;28;20462;-73
2023/05/15 02:44:04;;;;;;;;;;;12.00;99.90;;;;;;5085492;28;20014;-73
2023/05/15 02:46:30;;;;;;;;;;;12.00;99.90;;;;;;5079949;28;19924;-73
2023/05/15 02:48:56;;;;;;;;;;;12.00;99.90;;;;;;5091956;28;20666;-73
2023/05/15 02:51:21;;;;;;;;;;;12.00;99.90;;;;;;5092525;28;20011;-73
2023/05/15 02:53:47;;;;;;;;;;;12.00;99.90;;;;;;5092154;28;20340;-73
2023/05/15 02:56:13;;;;;;;;;;;12.00;99.90;;;;;;5093604;28;19924;-73
2023/05/15 02:58:39;;;;;;;;;;;11.90;99.90;;;;;;5092080;28;20773;-74
2023/05/15 03:01:04;;;;;;;;;;;11.90;99.90;;;;;;5093323;28;20259;-73
2023/05/15 03:03:30;;;;;;;;;;;11.90;99.90;;;;;;5091639;28;19928;-73
2023/05/15 03:05:56;;;;;;;;;;;11.80;99.90;;;;;;5093563;28;19979;-73
2023/05/15 03:08:21;;;;;;;;;;;11.80;99.90;;;;;;5092893;28;19924;-73
2023/05/15 03:10:47;;;;;;;;;;;11.70;99.90;;;;;;5083875;28;19924;-73
2023/05/15 03:13:12;;;;;;;;;;;11.80;99.90;;;;;;5088838;28;19981;-73
2023/05/15 03:15:38;;;;;;;;;;;11.70;99.90;;;;;;5092024;28;19924;-73
2023/05/15 03:18:03;;;;;;;;;;;11.70;99.90;;;;;;5092377;28;19924;-73
2023/05/15 03:20:29;;;;;;;;;;;11.70;99.90;;;;;;5091337;28;20412;-73
2023/05/15 03:22:54;;;;;;;;;;;11.70;99.90;;;;;;5091318;28;20309;-73
2023/05/15 03:25:21;;;;;;;;;;;11.70;99.90;;;;;;5092848;28;19924;-73
2023/05/15 03:27:46;;;;;;;;;;;11.70;99.90;;;;;;5091736;28;19924;-73
2023/05/15 03:30:12;;;;;;;;;;;11.60;99.90;;;;;;5091521;28;20370;-73
2023/05/15 03:32:37;;;;;;;;;;;11.60;99.90;;;;;;5090850;28;19931;-74
2023/05/15 03:35:03;;;;;;;;;;;11.60;99.90;;;;;;5091645;28;19932;-74
2023/05/15 03:37:28;;;;;;;;;;;11.70;99.90;;;;;;5079545;28;19931;-73
2023/05/15 03:39:54;;;;;;;;;;;11.60;99.90;;;;;;5082766;28;19939;-73
2023/05/15 03:42:22;;;;;;;;;;;11.60;99.90;;;;;;5090705;28;19924;-73
2023/05/15 03:44:48;;;;;;;;;;;11.60;99.90;;;;;;5091260;28;19924;-73
2023/05/15 03:47:14;;;;;;;;;;;11.60;99.90;;;;;;5092417;28;20088;-73
2023/05/15 03:49:40;;;;;;;;;;;11.60;99.90;;;;;;5073881;28;19949;-73
2023/05/15 03:52:05;;;;;;;;;;;11.60;99.90;;;;;;5091093;28;19931;-73
2023/05/15 03:54:31;;;;;;;;;;;11.50;99.90;;;;;;5092590;28;19970;-73
2023/05/15 03:56:57;;;;;;;;;;;11.50;99.90;;;;;;5090921;28;19999;-74
2023/05/15 03:59:22;;;;;;;;;;;11.50;99.90;;;;;;5073901;28;19924;-73
2023/05/15 04:01:48;;;;;;;;;;;11.40;99.90;;;;;;5092047;28;20344;-73
2023/05/15 04:04:13;;;;;;;;;;;11.40;99.90;;;;;;5090958;28;20306;-73
2023/05/15 04:06:39;;;;;;;;;;;11.40;99.90;;;;;;5089669;28;19936;-73
2023/05/15 04:09:04;;;;;;;;;;;11.40;99.90;;;;;;5090229;28;19935;-73
2023/05/15 04:11:30;;;;;;;;;;;11.40;99.90;;;;;;5088860;28;19939;-73
2023/05/15 04:13:56;;;;;;;;;;;11.40;99.90;;;;;;5079988;28;19928;-74
2023/05/15 04:16:21;;;;;;;;;;;11.40;99.90;;;;;;5090762;28;20019;-73
2023/05/15 04:18:47;;;;;;;;;;;11.40;99.90;;;;;;5091225;28;19963;-73
2023/05/15 04:21:12;;;;;;;;;;;11.30;99.90;;;;;;5090633;28;20019;-73
2023/05/15 04:23:40;;;;;;;;;;;11.30;99.90;;;;;;5090818;28;19931;-73
2023/05/15 04:26:07;;;;;;;;;;;11.30;99.90;;;;;;5091062;28;19924;-73
2023/05/15 04:28:32;;;;;;;;;;;11.30;99.90;;;;;;5090615;28;19999;-73
2023/05/15 04:30:58;;;;;;;;;;;11.30;99.90;;;;;;5090097;28;20402;-73
2023/05/15 04:33:24;;;;;;;;;;;11.30;99.90;;;;;;5090352;28;19924;-73
2023/05/15 04:35:50;;;;;;;;;;;11.30;99.90;;;;;;5090846;28;19969;-73
2023/05/15 04:38:16;;;;;;;;;;;11.30;99.90;;;;;;5091888;28;19970;-73
2023/05/15 04:40:42;;;;;;;;;;;11.30;99.90;;;;;;5091279;28;19924;-73
2023/05/15 04:43:07;;;;;;;;;;;11.30;99.90;;;;;;5090094;28;20037;-73
2023/05/15 04:45:33;;;;;;;;;;;11.30;99.90;;;;;;5089466;28;19974;-73
2023/05/15 04:47:58;;;;;;;;;;;11.40;99.90;;;;;;5090760;28;20336;-73
2023/05/15 04:50:27;;;;;;;;;;;11.30;99.90;;;;;;5090215;28;19967;-73
2023/05/15 04:52:53;;;;;;;;;;;11.30;99.90;;;;;;5091209;28;20031;-73
2023/05/15 04:55:18;;;;;;;;;;;11.30;99.90;;;;;;5079720;28;20025;-73
2023/05/15 04:57:47;;;;;;;;;;;11.30;99.90;;;;;;5089178;28;19928;-73
2023/05/15 05:00:13;;;;;;;;;;;11.40;99.90;;;;;;5089581;28;19925;-73
2023/05/15 05:02:39;;;;;;;;;;;11.40;99.90;;;;;;5089633;28;20360;-73
2023/05/15 05:05:06;;;;;;;;;;;11.40;99.90;;;;;;5072204;28;20018;-73
2023/05/15 05:07:31;;;;;;;;;;;11.40;99.90;;;;;;5089094;28;19924;-73
2023/05/15 05:09:57;;;;;;;;;;;11.50;99.90;;;;;;5070692;28;19931;-73
2023/05/15 05:12:22;;;;;;;;;;;11.50;99.90;;;;;;5088130;28;19932;-73
2023/05/15 05:14:48;;;;;;;;;;;11.50;99.90;;;;;;5088197;28;19930;-73
2023/05/15 05:17:14;;;;;;;;;;;11.50;99.90;;;;;;5090158;28;19928;-73
2023/05/15 05:19:40;;;;;;;;;;;11.60;99.90;;;;;;5088704;28;20634;-73
2023/05/15 05:22:06;;;;;;;;;;;11.60;99.90;;;;;;5071931;28;20359;-70
2023/05/15 05:24:32;;;;;;;;;;;11.60;99.90;;;;;;5072113;28;20011;-72
2023/05/15 05:26:57;;;;;;;;;;;11.60;99.90;;;;;;5090370;28;19924;-71
2023/05/15 05:29:23;;;;;;;;;;;11.60;99.90;;;;;;5088954;28;19954;-73
2023/05/15 05:31:49;;;;;;;;;;;11.60;99.90;;;;;;5096965;28;19931;-72
2023/05/15 05:34:14;;;;;;;;;;;11.60;99.90;;;;;;5094058;28;19924;-72
2023/05/15 05:36:40;;;;;;;;;;;11.60;99.90;;;;;;5089078;28;19970;-73
2023/05/15 05:39:05;;;;;;;;;;;11.60;99.90;;;;;;5087330;28;19992;-72
2023/05/15 05:41:31;;;;;;;;;;;11.70;99.90;;;;;;5089947;28;20409;-72
2023/05/15 05:43:57;;;;;;;;;;;11.70;99.90;;;;;;5071320;28;19970;-73
2023/05/15 05:46:22;;;;;;;;;;;11.80;99.90;;;;;;5088356;28;19947;-73
2023/05/15 05:48:48;;;;;;;;;;;11.90;99.90;;;;;;5086272;28;19932;-73
2023/05/15 05:51:13;;;;;;;;;;;12.00;99.90;;;;;;5071668;28;19935;-73
2023/05/15 05:53:39;;;;;;;;;;;12.00;99.90;;;;;;5089947;28;20015;-73
2023/05/15 05:56:05;;;;;;;;;;;12.00;99.90;;;;;;5088812;28;19924;-73
2023/05/15 05:58:30;;;;;;;;;;;12.10;99.90;;;;;;5089713;28;20016;-73
2023/05/15 06:00:56;;;;;;;;;;;12.10;99.90;;;;;;5088057;28;19928;-73
2023/05/15 06:03:22;;;;;;;;;;;12.20;99.90;;;;;;5088046;28;19938;-73
2023/05/15 06:05:48;;;;;;;;;;;12.30;99.90;;;;;;5088235;28;20010;-73
2023/05/15 06:08:14;;;;;;;;;;;12.40;99.90;;;;;;5088294;28;20028;-73
2023/05/15 06:10:41;;;;;;;;;;;12.50;99.90;;;;;;5088177;28;19928;-73
2023/05/15 06:13:06;;;;;;;;;;;12.60;99.90;;;;;;5088294;28;19924;-73
2023/05/15 06:15:32;;;;;;;;;;;12.60;99.90;;;;;;5089595;28;20008;-73
2023/05/15 06:17:57;;;;;;;;;;;12.70;99.90;;;;;;5088041;28;19924;-73
2023/05/15 06:20:23;;;;;;;;;;;12.70;99.90;;;;;;5088298;28;20289;-73
2023/05/15 06:22:49;;;;;;;;;;;12.70;99.90;;;;;;5088889;28;19925;-73
2023/05/15 06:25:14;;;;;;;;;;;12.70;99.90;;;;;;5088682;28;20417;-73
2023/05/15 06:27:40;;;;;;;;;;;12.70;99.90;;;;;;5087988;28;19935;-73
2023/05/15 06:30:06;;;;;;;;;;;12.70;99.90;;;;;;5089286;28;19934;-73
2023/05/15 06:32:32;;;;;;;;;;;12.70;99.90;;;;;;5089638;28;19969;-73
2023/05/15 06:34:58;;;;;;;;;;;12.80;99.90;;;;;;5089750;28;19927;-73
2023/05/15 06:37:23;;;;;;;;;;;12.80;99.90;;;;;;5078090;28;19967;-73
2023/05/15 06:39:49;;;;;;;;;;;12.90;99.90;;;;;;5088663;28;19978;-73
2023/05/15 06:42:14;;;;;;;;;;;13.00;99.90;;;;;;5087482;28;19924;-73
2023/05/15 06:44:40;;;;;;;;;;;13.10;99.90;;;;;;5089732;28;20084;-73
2023/05/15 06:47:05;;;;;;;;;;;13.20;99.90;;;;;;5088008;28;19931;-73
2023/05/15 06:49:31;;;;;;;;;;;13.20;99.90;;;;;;5089110;28;19925;-73
2023/05/15 06:51:56;;;;;;;;;;;13.30;99.90;;;;;;5087715;28;19974;-73
2023/05/15 06:54:22;;;;;;;;;;;13.40;99.90;;;;;;5087894;28;20009;-73
2023/05/15 06:56:48;;;;;;;;;;;13.40;99.90;;;;;;5089774;28;20003;-73
2023/05/15 06:59:13;;;;;;;;;;;13.50;99.90;;;;;;5088590;28;20409;-73
2023/05/15 07:01:39;;;;;;;;;;;13.50;99.90;;;;;;5087619;28;19946;-74
2023/05/15 07:04:04;;;;;;;;;;;13.60;99.90;;;;;;5071223;28;19936;-74
2023/05/15 07:06:33;;;;;;;;;;;13.70;99.90;;;;;;5088938;28;19925;-73
2023/05/15 07:08:58;;;;;;;;;;;13.70;99.90;;;;;;5088032;28;19924;-73
2023/05/15 07:11:24;;;;;;;;;;;13.60;99.90;;;;;;5087730;28;19931;-73
2023/05/15 07:13:51;;;;;;;;;;;13.60;99.90;;;;;;5089715;28;20310;-73
2023/05/15 07:16:16;;;;;;;;;;;13.60;99.90;;;;;;5089257;28;19931;-73
2023/05/15 07:18:42;;;;;;;;;;;13.70;99.90;;;;;;5088461;28;19924;-73
2023/05/15 07:21:07;;;;;;;;;;;13.70;99.90;;;;;;5070729;28;19924;-73
2023/05/15 07:23:33;;;;;;;;;;;13.80;99.90;;;;;;5089278;28;20325;-73
2023/05/15 07:25:58;;;;;;;;;;;13.80;99.90;;;;;;5075773;28;19939;-73
2023/05/15 07:28:24;;;;;;;;;;;13.80;99.90;;;;;;5087398;28;19924;-74
2023/05/15 07:30:50;;;;;;;;;;;13.90;99.90;;;;;;5087201;28;19932;-73
2023/05/15 07:33:15;;;;;;;;;;;14.00;99.90;;;;;;5078796;28;20373;-73
2023/05/15 07:35:41;;;;;;;;;;;14.00;99.90;;;;;;5092537;28;19924;-73
2023/05/15 07:38:07;;;;;;;;;;;14.10;99.90;;;;;;5091805;28;19924;-73
2023/05/15 07:40:32;;;;;;;;;;;14.20;99.90;;;;;;5090920;28;20014;-73
2023/05/15 07:42:58;;;;;;;;;;;14.20;99.90;;;;;;5091405;28;20352;-73
2023/05/15 07:45:23;;;;;;;;;;;14.20;99.90;;;;;;5092737;28;20433;-73
2023/05/15 07:47:49;;;;;;;;;;;14.30;99.90;;;;;;5074570;28;20011;-73
2023/05/15 07:50:15;;;;;;;;;;;14.30;99.90;;;;;;5091200;28;19924;-74
2023/05/15 07:52:41;;;;;;;;;;;14.40;99.90;;;;;;5092057;28;20062;-73
2023/05/15 07:55:08;;;;;;;;;;;14.50;99.90;;;;;;5091157;28;19931;-74
2023/05/15 07:57:33;;;;;;;;;;;14.60;99.90;;;;;;5081302;28;19924;-74
2023/05/15 08:00:01;;;;;;;;;;;14.70;99.90;;;;;;5090940;28;19924;-73
2023/05/15 08:02:27;;;;;;;;;;;14.60;99.90;;;;;;5081670;28;19977;-74
2023/05/15 08:04:52;;;;;;;;;;;14.70;99.90;;;;;;5092095;28;19936;-74
2023/05/15 08:07:18;;;;;;;;;;;14.80;99.90;;;;;;5092047;28;19924;-74
2023/05/15 08:09:43;;;;;;;;;;;14.80;99.90;;;;;;5090293;28;19935;-73
2023/05/15 08:12:19;;;;;;;;;;;14.90;99.90;;;;;;5090163;28;19924;-74
2023/05/15 08:14:54;;;;;;;;;;;14.90;99.90;;;;;;5091375;28;19993;-73
2023/05/15 08:17:20;;;;;;;;;;;15.00;99.90;;;;;;5090733;28;20309;-74
2023/05/15 08:19:46;;;;;;;;;;;15.10;99.90;;;;;;5091166;28;19924;-74
2023/05/15 08:22:11;;;;;;;;;;;15.10;99.90;;;;;;5091924;28;19938;-73
2023/05/15 08:24:37;;;;;;;;;;;15.20;99.90;;;;;;5073407;28;20275;-73
2023/05/15 08:27:07;;;;;;;;;;;15.30;99.90;;;;;;5073816;28;19937;-73
2023/05/15 08:29:33;;;;;;;;;;;15.40;99.90;;;;;;5091088;28;20389;-74
2023/05/15 08:31:58;;;;;;;;;;;15.30;99.90;;;;;;5090545;28;19924;-74
2023/05/15 08:34:24;;;;;;;;;;;15.30;99.90;;;;;;5090133;28;19924;-74
2023/05/15 08:36:51;;;;;;;;;;;15.30;99.90;;;;;;5090576;28;19970;-74
2023/05/15 08:39:17;;;;;;;;;;;15.50;99.90;;;;;;5072754;28;19974;-74
2023/05/15 08:41:48;;;;;;;;;;;15.50;99.90;;;;;;5091935;28;19960;-73
2023/05/15 08:44:14;;;;;;;;;;;15.60;99.90;;;;;;5089744;28;19924;-74
2023/05/15 08:46:39;;;;;;;;;;;15.50;99.90;;;;;;5090912;28;19931;-74
2023/05/15 08:49:11;;;;;;;;;;;15.50;99.90;;;;;;5090480;28;19939;-74
2023/05/15 08:51:37;;;;;;;;;;;15.60;99.90;;;;;;5073202;28;19924;-74
2023/05/15 08:54:03;;;;;;;;;;;15.80;99.90;;;;;;5091133;28;19986;-73
2023/05/15 08:56:28;;;;;;;;;;;15.90;99.90;;;;;;5091508;28;19955;-74
2023/05/15 08:58:54;;;;;;;;;;;15.90;99.90;;;;;;5090385;28;19924;-74
2023/05/15 09:01:20;;;;;;;;;;;15.90;99.90;;;;;;5091354;28;19924;-74
2023/05/15 09:03:45;;;;;;;;;;;15.90;99.90;;;;;;5091257;28;20023;-74
2023/05/15 09:06:12;;;;;;;;;;;16.00;99.90;;;;;;5073070;28;19924;-74
2023/05/15 09:08:38;;;;;;;;;;;16.00;99.90;;;;;;5090971;28;19986;-74
2023/05/15 09:11:04;;;;;;;;;;;16.10;99.90;;;;;;5072197;28;20378;-74
2023/05/15 09:13:30;;;;;;;;;;;16.10;99.90;;;;;;5090477;28;19928;-73
2023/05/15 09:15:55;;;;;;;;;;;16.10;99.90;;;;;;5072430;28;19931;-74
2023/05/15 09:18:21;;;;;;;;;;;16.20;99.90;;;;;;5090343;28;19929;-74
2023/05/15 09:20:47;;;;;;;;;;;16.40;99.90;;;;;;5089344;28;19931;-74
2023/05/15 09:23:22;;;;;;;;;;;16.60;99.90;;;;;;5089881;28;20330;-74
2023/05/15 09:25:52;;;;;;;;;;;16.80;99.90;;;;;;5090433;28;20042;-74
2023/05/15 09:28:25;;;;;;;;;;;17.00;99.90;;;;;;5062068;28;19924;-74
2023/05/15 09:30:55;;;;;;;;;;;17.10;99.90;;;;;;5072333;28;20064;-74
2023/05/15 09:33:26;;;;;;;;;;;17.30;99.90;;;;;;5080582;28;20772;-74
2023/05/15 09:35:52;;;;;;;;;;;17.40;99.90;;;;;;5089904;28;19930;-74
2023/05/15 09:38:18;;;;;;;;;;;17.70;99.90;;;;;;5089562;28;19924;-74
2023/05/15 09:40:43;;;;;;;;;;;17.90;99.90;;;;;;5090090;28;19939;-74
2023/05/15 09:43:10;;;;;;;;;;;18.10;99.90;;;;;;5089957;28;19924;-74
2023/05/15 09:45:36;;;;;;;;;;;18.20;99.90;;;;;;5089591;28;19950;-74
2023/05/15 09:48:06;;;;;;;;;;;18.30;99.90;;;;;;5084482;28;19928;-74
2023/05/15 09:50:35;;;;;;;;;;;18.60;99.90;;;;;;5088256;28;19924;-74
2023/05/15 09:53:01;;;;;;;;;;;18.80;99.90;;;;;;5090366;28;19924;-74
2023/05/15 09:55:27;;;;;;;;;;;18.90;99.90;;;;;;5088584;28;19924;-74
2023/05/15 09:58:06;;;;;;;;;;;19.00;99.90;;;;;;5080527;28;19924;-74
2023/05/15 10:00:32;;;;;;;;;;;19.10;99.90;;;;;;5083220;28;19950;-74
2023/05/15 10:02:57;;;;;;;;;;;19.00;99.90;;;;;;5089941;28;19932;-74
2023/05/15 10:05:27;;;;;;;;;;;18.90;99.90;;;;;;5088595;28;19924;-74
2023/05/15 10:07:56;;;;;;;;;;;18.90;99.90;;;;;;5089807;28;20013;-74
2023/05/15 10:10:22;;;;;;;;;;;18.90;99.90;;;;;;5088773;28;19924;-74
2023/05/15 10:12:50;;;;;;;;;;;19.00;99.90;;;;;;5090080;28;19927;-74
2023/05/15 10:15:16;;;;;;;;;;;19.30;99.90;;;;;;5089945;28;19981;-74
2023/05/15 10:17:42;;;;;;;;;;;19.70;99.90;;;;;;5089331;28;19924;-75
2023/05/15 10:20:09;;;;;;;;;;;19.80;99.90;;;;;;5071729;28;20019;-74
2023/05/15 10:22:36;;;;;;;;;;;20.00;99.90;;;;;;5088512;28;19924;-75
2023/05/15 10:25:01;;;;;;;;;;;20.30;99.90;;;;;;5076210;28;19975;-74
2023/05/15 10:27:29;;;;;;;;;;;20.40;99.90;;;;;;5089342;28;19960;-75
2023/05/15 10:29:55;;;;;;;;;;;20.40;99.90;;;;;;5089907;28;19936;-75
2023/05/15 10:32:21;;;;;;;;;;;20.30;99.90;;;;;;5089739;28;20014;-74
2023/05/15 10:34:47;;;;;;;;;;;20.30;99.90;;;;;;5089556;28;19978;-74
2023/05/15 10:37:13;;;;;;;;;;;20.30;99.90;;;;;;5089741;28;19927;-74
2023/05/15 10:39:39;;;;;;;;;;;20.40;99.90;;;;;;5089790;28;20468;-75
2023/05/15 10:42:06;;;;;;;;;;;20.60;99.90;;;;;;5089753;28;20341;-74
2023/05/15 10:44:32;;;;;;;;;;;20.80;99.90;;;;;;5078358;28;19970;-75
2023/05/15 10:46:58;;;;;;;;;;;21.00;99.90;;;;;;5087844;28;19932;-75
2023/05/15 10:49:23;;;;;;;;;;;21.10;99.90;;;;;;5077780;28;20237;-75
2023/05/15 10:51:51;;;;;;;3.97;3.42;;;21.10;99.90;;;;;;5089005;28;19950;-74
2023/05/15 10:54:17;;;;;;;5.00;3.72;;;21.20;99.90;;;;;;5089166;28;20036;-74
2023/05/15 10:56:43;;;;;;;5.53;4.32;;;21.30;99.90;;;;;;5087152;28;20417;-74
2023/05/15 10:59:10;;;;;;;4.50;3.80;;;21.50;99.90;;;;;;5080960;28;20399;-75
2023/05/15 11:01:40;;;;;;;5.35;4.18;;;21.60;99.90;;;;;;5083635;28;20459;-74
2023/05/15 11:04:16;;;;;;;5.38;4.40;;;21.80;99.90;;;;;;5086202;28;20414;-74
2023/05/15 11:06:47;;;;;;;5.70;4.88;;;21.80;99.90;;;;;;5073539;28;20860;-75
2023/05/15 11:09:23;;;;;;;4.60;3.63;;;21.80;99.90;;;;;;5089382;28;20398;-74
2023/05/15 11:11:51;;;;;;;4.63;3.47;;;21.80;99.90;;;;;;5087405;28;20796;-74
2023/05/15 11:14:27;;;;;;;4.30;3.42;;;21.60;99.90;;;;;;5088632;28;20859;-75
2023/05/15 11:16:52;;;;;;;4.82;3.40;;;21.50;99.90;;;;;;5089902;28;20416;-74
2023/05/15 11:19:22;;;;;;;3.55;3.00;;;21.50;99.80;;;;;;5090094;28;21115;-75
2023/05/15 11:21:56;;;;;;;5.30;4.32;;;21.50;99.60;;;;;;5079984;28;20419;-75
2023/05/15 11:24:52;;;;;;;3.90;3.10;;;21.60;99.90;;;;;;5089422;28;20044;-75
2023/05/15 11:27:22;;;;;;;3.63;2.97;;;21.60;99.10;;;;;;5083435;28;20124;-75
2023/05/15 11:30:07;;;;;;;3.97;3.03;;;21.70;99.50;;;;;;5100000;28;20494;-75
2023/05/15 11:32:46;;;;;;;3.78;3.47;;;21.80;97.30;;;;;;5091304;28;20138;-75
2023/05/15 11:35:33;;;;;;;4.43;3.63;;;21.70;98.70;;;;;;5100064;28;20135;-74
2023/05/15 11:38:01;;;;;;;;;;;21.60;98.30;;;;;;5091250;28;20489;-74
2023/05/15 11:40:32;;;;;;;4.45;3.92;;;21.50;98.10;;;;;;5076719;28;19919;-75
2023/05/15 11:43:20;;;;;;;6.22;4.85;;;21.60;99.30;;;;;;5091140;28;20074;-74
2023/05/15 11:45:54;;;;;;;5.47;4.68;;;21.60;98.70;;;;;;5090816;28;20048;-74
2023/05/15 11:48:21;;;;;;;5.60;5.10;;;21.80;99.70;;;;;;5072597;28;20410;-74
2023/05/15 11:50:46;;;;;;;5.30;4.80;;;21.90;99.60;;;;;;5093549;28;20410;-74
2023/05/15 11:53:13;;;;;;;5.70;5.17;;;21.80;99.20;;;;;;5090816;28;20408;-75
2023/05/15 11:55:40;;;;;;;4.90;4.40;;;21.40;96.50;;;;;;5090585;28;20802;-74
2023/05/15 11:58:14;;;;;;;7.65;5.10;;;21.00;98.00;;;;;;5090587;28;20900;-74
2023/05/15 12:00:44;;;;;;;5.63;5.13;;;20.80;98.60;;;;;;5089699;28;21102;-74
2023/05/15 12:03:36;;;;;;;6.55;4.97;;;20.70;99.40;;;;;;5086639;28;20444;-74
2023/05/15 12:06:03;;;;;;;5.93;5.32;;;20.70;98.40;;;;;;5087033;28;20495;-74
2023/05/15 12:08:33;;;;;;;7.13;5.80;;;20.80;97.90;;;;;;5087829;28;20510;-74
2023/05/15 12:10:59;;;;;;;;;;;21.00;99.80;;;;;;5093639;28;20044;-74
2023/05/15 12:13:25;;;;;;;;;;;21.10;98.40;;;;;;5092225;28;19924;-75
2023/05/15 12:15:53;;;;;;;;;;;21.20;97.60;;;;;;5096270;28;19930;-74
2023/05/15 12:18:18;;;;;;;;;;;21.30;98.80;;;;;;5093579;28;19920;-74
2023/05/15 12:20:45;;;;;;;;;;;21.40;98.40;;;;;;5093063;28;19972;-75
2023/05/15 12:23:14;;;;;;;5.97;3.88;;;21.50;98.40;;;;;;5091237;28;19923;-75
2023/05/15 12:25:42;;;;;;;6.28;4.20;;;21.70;97.10;;;;;;5101009;28;20501;-74
2023/05/15 12:28:08;;;;;;;6.03;5.18;;;21.70;96.30;;;;;;5092254;28;20978;-75
2023/05/15 12:30:34;;;;;;;5.32;4.38;;;21.70;97.20;;;;;;5090754;28;20486;-74
2023/05/15 12:33:08;;;;;;;5.35;4.47;;;21.70;96.90;;;;;;5077133;28;20429;-75
2023/05/15 12:35:42;;;;;;;4.60;3.90;;;21.80;96.80;;;;;;5090834;28;20767;-74
2023/05/15 12:38:12;;;;;;;6.95;4.57;;;22.00;95.70;;;;;;5095339;28;20411;-75
2023/05/15 12:40:38;;;;;;;6.15;4.40;;;22.10;96.80;;;;;;5093696;27;20410;-75
2023/05/15 12:43:07;;;;;;;6.43;4.80;;;22.20;97.10;;;;;;5095633;28;20770;-75
2023/05/15 12:45:35;;;;;;;5.63;3.60;;;22.10;95.80;;;;;;5093907;28;20969;-74
2023/05/15 12:48:00;;;;;;;4.10;3.50;;;22.00;95.70;;;;;;5088570;28;20414;-75
2023/05/15 12:50:29;;;;;;;4.80;4.10;;;21.90;96.00;;;;;;5090314;28;20409;-72
2023/05/15 12:52:56;;;;;;;4.82;3.83;;;21.60;96.60;;;;;;5088460;28;20469;-73
2023/05/15 12:55:32;;;;;;;5.05;3.88;;;21.50;95.70;;;;;;5091768;28;20434;-74
2023/05/15 12:58:08;;;;;;;5.20;3.90;;;21.60;95.60;;;;;;5088945;28;21040;-74
2023/05/15 13:00:35;;;;;;;4.30;3.50;;;21.50;96.60;;;;;;5087359;28;20760;-74
2023/05/15 13:03:03;;;;;;;4.38;3.70;;;21.40;95.60;;;;;;5089624;28;20402;-74
2023/05/15 13:05:31;;;;;;;4.67;3.40;;;21.30;96.20;;;;;;5083648;28;20493;-74
2023/05/15 13:07:58;;;;;;;5.18;2.90;;;21.30;95.60;;;;;;5070369;28;20466;-74
2023/05/15 13:10:24;;;;;;;5.13;3.90;;;21.20;96.70;;;;;;5088860;28;20398;-74
2023/05/15 13:12:52;;;;;;;6.10;3.38;;;21.20;96.30;;;;;;5087466;28;20479;-75
2023/05/15 13:15:38;;;;;;;5.00;3.92;;;21.20;95.70;;;;;;5089308;28;20398;-74
2023/05/15 13:18:08;;;;;;;5.47;4.00;;;21.30;97.30;;;;;;5087553;28;20406;-75
2023/05/15 13:20:48;;;;;;;5.40;4.00;;;21.50;96.60;;;;;;5088850;28;20413;-75
2023/05/15 13:23:16;;;;;;;5.63;4.45;;;21.40;95.90;;;;;;5087630;28;20455;-75
2023/05/15 13:25:42;;;;;;;4.45;4.05;;;21.30;95.60;;;;;;5087211;28;20441;-75
2023/05/15 13:28:09;;;;;;;5.30;3.92;;;21.20;95.20;;;;;;5087196;28;20829;-75
2023/05/15 13:30:37;;;;;;;5.35;3.83;;;21.00;95.00;;;;;;5087731;28;20409;-74
2023/05/15 13:33:03;;;;;;;5.83;4.20;;;20.90;96.50;;;;;;5070226;28;20483;-74
2023/05/15 13:35:29;;;;;;;6.63;4.47;;;20.70;96.60;;;;;;5088495;28;20802;-74
2023/05/15 13:37:55;;;;;;;5.10;4.30;;;20.50;96.60;;;;;;5087101;28;20421;-75
2023/05/15 13:40:21;;;;;;;5.13;4.63;;;20.30;97.40;;;;;;5087490;28;20414;-75
2023/05/15 13:42:47;;;;;;;5.97;4.85;;;20.40;97.80;;;;;;5073468;28;20410;-75
2023/05/15 13:45:14;;;;;;;5.23;4.30;;;20.50;97.20;;;;;;5087954;28;20398;-74
2023/05/15 13:47:41;;;;;;;6.75;5.60;;;20.50;97.90;;;;;;5068711;28;20493;-75
2023/05/15 13:50:08;;;;;;;8.77;5.85;;;20.50;96.90;;;;;;5069527;28;20412;-74
2023/05/15 13:52:34;;;;;;;5.73;5.07;;;20.40;97.50;;;;;;5085459;28;20437;-74
2023/05/15 13:54:59;;;;;;;4.95;4.45;;;20.30;97.80;;;;;;5085959;28;20417;-75
2023/05/15 13:57:25;;;;;;;5.90;5.40;;;20.30;97.00;;;;;;5084499;28;20478;-75